Terminal Aerodrome Forecast
Issued by NWS Boise, ID

Home | Current Version | Previous Version | Text Only | Print | Product List | Glossary On
Versions: 1 2 3 4 5 6 7 8 9 10 11 12 13 14 15 16 17 18 19 20 21 22 23 24
000
FTUS45 KBOI 180520
TAFBOI
TAF
KBOI 180520Z 1806/1906 VRB05KT P6SM SKC
     FM181500 31013KT P6SM SKC
     FM181800 31018G28KT P6SM SKC
     FM190300 31013KT P6SM SKC=

USA.gov is the U.S. government's official web portal to all federal, state and local government web resources and services.